sensor_id;sensor_type;location;lat;lon;timestamp;pressure;altitude;pressure_sealevel;temperature;humidity
31538;BME280;18147;51.952;6.146;2022-08-21T00:01:26;101634.28;;;13.97;100.00
31538;BME280;18147;51.952;6.146;2022-08-21T00:03:52;101629.91;;;13.82;100.00
31538;BME280;18147;51.952;6.146;2022-08-21T00:06:18;101630.69;;;13.70;100.00
31538;BME280;18147;51.952;6.146;2022-08-21T00:08:43;101632.22;;;13.60;100.00
31538;BME280;18147;51.952;6.146;2022-08-21T00:11:09;101627.94;;;13.71;100.00
31538;BME280;18147;51.952;6.146;2022-08-21T00:13:35;101631.34;;;13.73;100.00
31538;BME280;18147;51.952;6.146;2022-08-21T00:16:02;101636.41;;;13.92;100.00
31538;BME280;18147;51.952;6.146;2022-08-21T00:18:28;101631.56;;;14.12;100.00
31538;BME280;18147;51.952;6.146;2022-08-21T00:20:54;101630.06;;;14.20;100.00
31538;BME280;18147;51.952;6.146;2022-08-21T00:23:19;101626.41;;;14.09;100.00
31538;BME280;18147;51.952;6.146;2022-08-21T00:25:45;101632.66;;;13.95;100.00
31538;BME280;18147;51.952;6.146;2022-08-21T00:28:11;101629.34;;;13.77;100.00
31538;BME280;18147;51.952;6.146;2022-08-21T00:30:37;101627.25;;;13.68;100.00
31538;BME280;18147;51.952;6.146;2022-08-21T00:33:04;101622.84;;;13.67;100.00
31538;BME280;18147;51.952;6.146;2022-08-21T00:35:33;101619.88;;;13.71;100.00
31538;BME280;18147;51.952;6.146;2022-08-21T00:38:00;101614.31;;;13.74;100.00
31538;BME280;18147;51.952;6.146;2022-08-21T00:40:33;101613.66;;;13.71;100.00
31538;BME280;18147;51.952;6.146;2022-08-21T00:42:59;101615.50;;;13.70;100.00
31538;BME280;18147;51.952;6.146;2022-08-21T00:45:24;101620.63;;;13.73;100.00
31538;BME280;18147;51.952;6.146;2022-08-21T00:47:51;101613.56;;;13.58;100.00
31538;BME280;18147;51.952;6.146;2022-08-21T00:50:18;101618.34;;;13.67;100.00
31538;BME280;18147;51.952;6.146;2022-08-21T00:52:45;101616.94;;;13.62;100.00
31538;BME280;18147;51.952;6.146;2022-08-21T00:55:11;101620.66;;;13.59;100.00
31538;BME280;18147;51.952;6.146;2022-08-21T00:57:42;101615.56;;;13.69;100.00
31538;BME280;18147;51.952;6.146;2022-08-21T01:00:13;101611.56;;;13.62;100.00
31538;BME280;18147;51.952;6.146;2022-08-21T01:02:38;101614.59;;;13.70;100.00
31538;BME280;18147;51.952;6.146;2022-08-21T01:05:05;101605.63;;;13.71;100.00
31538;BME280;18147;51.952;6.146;2022-08-21T01:07:30;101607.94;;;13.63;100.00
31538;BME280;18147;51.952;6.146;2022-08-21T01:09:56;101611.34;;;13.65;100.00
31538;BME280;18147;51.952;6.146;2022-08-21T01:12:22;101609.38;;;13.54;100.00
31538;BME280;18147;51.952;6.146;2022-08-21T01:14:48;101605.72;;;13.55;100.00
31538;BME280;18147;51.952;6.146;2022-08-21T01:17:15;101612.84;;;13.42;100.00
31538;BME280;18147;51.952;6.146;2022-08-21T01:19:41;101610.91;;;13.44;100.00
31538;BME280;18147;51.952;6.146;2022-08-21T01:22:07;101616.94;;;13.33;100.00
31538;BME280;18147;51.952;6.146;2022-08-21T01:24:32;101619.34;;;13.24;100.00
31538;BME280;18147;51.952;6.146;2022-08-21T01:26:59;101616.91;;;13.19;100.00
31538;BME280;18147;51.952;6.146;2022-08-21T01:29:38;101618.56;;;13.21;100.00
31538;BME280;18147;51.952;6.146;2022-08-21T01:32:07;101619.63;;;13.33;100.00
31538;BME280;18147;51.952;6.146;2022-08-21T01:34:36;101622.19;;;13.35;100.00
31538;BME280;18147;51.952;6.146;2022-08-21T01:37:03;101631.09;;;13.35;100.00
31538;BME280;18147;51.952;6.146;2022-08-21T01:39:29;101630.72;;;13.27;100.00
31538;BME280;18147;51.952;6.146;2022-08-21T01:41:54;101631.16;;;13.19;100.00
31538;BME280;18147;51.952;6.146;2022-08-21T01:44:21;101624.69;;;13.24;100.00
31538;BME280;18147;51.952;6.146;2022-08-21T01:46:47;101622.19;;;13.20;100.00
31538;BME280;18147;51.952;6.146;2022-08-21T01:49:14;101619.09;;;12.98;100.00
31538;BME280;18147;51.952;6.146;2022-08-21T01:51:40;101619.38;;;12.93;100.00
31538;BME280;18147;51.952;6.146;2022-08-21T01:54:05;101618.41;;;12.94;100.00
31538;BME280;18147;51.952;6.146;2022-08-21T01:56:39;101621.34;;;12.90;100.00
31538;BME280;18147;51.952;6.146;2022-08-21T01:59:05;101613.28;;;13.06;100.00
31538;BME280;18147;51.952;6.146;2022-08-21T02:01:31;101617.38;;;12.97;100.00
31538;BME280;18147;51.952;6.146;2022-08-21T02:03:56;101618.09;;;12.85;100.00
31538;BME280;18147;51.952;6.146;2022-08-21T02:06:22;101614.28;;;12.89;100.00
31538;BME280;18147;51.952;6.146;2022-08-21T02:08:47;101615.53;;;12.83;100.00
31538;BME280;18147;51.952;6.146;2022-08-21T02:11:13;101616.75;;;12.78;100.00
31538;BME280;18147;51.952;6.146;2022-08-21T02:13:39;101612.66;;;12.86;100.00
31538;BME280;18147;51.952;6.146;2022-08-21T02:16:05;101611.81;;;12.86;100.00
31538;BME280;18147;51.952;6.146;2022-08-21T02:18:31;101609.16;;;12.70;100.00
31538;BME280;18147;51.952;6.146;2022-08-21T02:20:57;101608.91;;;12.75;100.00
31538;BME280;18147;51.952;6.146;2022-08-21T02:23:23;101611.00;;;12.69;100.00
31538;BME280;18147;51.952;6.146;2022-08-21T02:25:49;101607.84;;;12.63;100.00
31538;BME280;18147;51.952;6.146;2022-08-21T02:28:15;101607.28;;;12.72;100.00
31538;BME280;18147;51.952;6.146;2022-08-21T02:30:45;101597.16;;;12.77;100.00
31538;BME280;18147;51.952;6.146;2022-08-21T02:33:11;101602.13;;;12.83;100.00
31538;BME280;18147;51.952;6.146;2022-08-21T02:35:38;101595.34;;;12.78;100.00
31538;BME280;18147;51.952;6.146;2022-08-21T02:38:07;101594.25;;;12.52;100.00
31538;BME280;18147;51.952;6.146;2022-08-21T02:40:36;101599.38;;;12.55;100.00
31538;BME280;18147;51.952;6.146;2022-08-21T02:43:04;101591.56;;;12.52;100.00
31538;BME280;18147;51.952;6.146;2022-08-21T02:45:30;101592.78;;;12.46;100.00
31538;BME280;18147;51.952;6.146;2022-08-21T02:47:59;101593.66;;;12.47;100.00
31538;BME280;18147;51.952;6.146;2022-08-21T02:50:33;101587.94;;;12.53;100.00
31538;BME280;18147;51.952;6.146;2022-08-21T02:53:00;101593.06;;;12.41;100.00
31538;BME280;18147;51.952;6.146;2022-08-21T02:55:27;101596.59;;;12.42;100.00
31538;BME280;18147;51.952;6.146;2022-08-21T02:57:55;101591.41;;;12.39;100.00
31538;BME280;18147;51.952;6.146;2022-08-21T03:00:22;101595.59;;;12.29;100.00
31538;BME280;18147;51.952;6.146;2022-08-21T03:02:48;101593.69;;;12.31;100.00
31538;BME280;18147;51.952;6.146;2022-08-21T03:05:14;101593.97;;;12.26;100.00
31538;BME280;18147;51.952;6.146;2022-08-21T03:07:41;101585.47;;;12.34;100.00
31538;BME280;18147;51.952;6.146;2022-08-21T03:10:08;101588.41;;;12.45;100.00
31538;BME280;18147;51.952;6.146;2022-08-21T03:12:34;101587.50;;;12.44;100.00
31538;BME280;18147;51.952;6.146;2022-08-21T03:15:02;101579.09;;;12.36;100.00
31538;BME280;18147;51.952;6.146;2022-08-21T03:17:27;101576.41;;;12.36;100.00
31538;BME280;18147;51.952;6.146;2022-08-21T03:19:53;101578.94;;;12.24;100.00
31538;BME280;18147;51.952;6.146;2022-08-21T03:22:18;101570.78;;;12.11;100.00
31538;BME280;18147;51.952;6.146;2022-08-21T03:24:44;101577.69;;;11.99;100.00
31538;BME280;18147;51.952;6.146;2022-08-21T03:27:11;101576.75;;;12.00;100.00
31538;BME280;18147;51.952;6.146;2022-08-21T03:29:38;101576.75;;;12.00;100.00
31538;BME280;18147;51.952;6.146;2022-08-21T03:32:03;101578.84;;;11.95;100.00
31538;BME280;18147;51.952;6.146;2022-08-21T03:34:29;101584.25;;;11.93;100.00
31538;BME280;18147;51.952;6.146;2022-08-21T03:36:55;101575.38;;;11.93;100.00
31538;BME280;18147;51.952;6.146;2022-08-21T03:39:20;101575.94;;;12.14;100.00
31538;BME280;18147;51.952;6.146;2022-08-21T03:41:45;101577.97;;;12.10;100.00
31538;BME280;18147;51.952;6.146;2022-08-21T03:44:12;101570.25;;;12.04;100.00
31538;BME280;18147;51.952;6.146;2022-08-21T03:46:38;101570.19;;;12.06;100.00
31538;BME280;18147;51.952;6.146;2022-08-21T03:49:04;101575.09;;;12.13;100.00
31538;BME280;18147;51.952;6.146;2022-08-21T03:51:29;101583.97;;;12.14;100.00
31538;BME280;18147;51.952;6.146;2022-08-21T03:53:57;101580.59;;;12.26;100.00
31538;BME280;18147;51.952;6.146;2022-08-21T03:56:23;101578.88;;;12.25;100.00
31538;BME280;18147;51.952;6.146;2022-08-21T03:58:49;101582.59;;;12.07;100.00
31538;BME280;18147;51.952;6.146;2022-08-21T04:01:14;101579.53;;;11.83;100.00
31538;BME280;18147;51.952;6.146;2022-08-21T04:03:40;101576.84;;;11.83;100.00
31538;BME280;18147;51.952;6.146;2022-08-21T04:06:06;101576.56;;;11.72;100.00
31538;BME280;18147;51.952;6.146;2022-08-21T04:08:31;101584.22;;;11.78;100.00
31538;BME280;18147;51.952;6.146;2022-08-21T04:10:57;101573.16;;;11.85;100.00
31538;BME280;18147;51.952;6.146;2022-08-21T04:13:24;101570.97;;;11.92;100.00
31538;BME280;18147;51.952;6.146;2022-08-21T04:15:50;101573.78;;;12.05;100.00
31538;BME280;18147;51.952;6.146;2022-08-21T04:18:15;101571.13;;;12.21;100.00
31538;BME280;18147;51.952;6.146;2022-08-21T04:20:42;101577.53;;;12.02;100.00
31538;BME280;18147;51.952;6.146;2022-08-21T04:23:08;101574.09;;;12.00;100.00
31538;BME280;18147;51.952;6.146;2022-08-21T04:25:34;101578.03;;;12.09;100.00
31538;BME280;18147;51.952;6.146;2022-08-21T04:28:00;101572.53;;;11.96;100.00
31538;BME280;18147;51.952;6.146;2022-08-21T04:30:27;101568.41;;;11.90;100.00
31538;BME280;18147;51.952;6.146;2022-08-21T04:32:52;101572.00;;;12.05;100.00
31538;BME280;18147;51.952;6.146;2022-08-21T04:35:21;101579.56;;;12.13;100.00
31538;BME280;18147;51.952;6.146;2022-08-21T04:37:47;101575.88;;;12.15;100.00
31538;BME280;18147;51.952;6.146;2022-08-21T04:40:14;101574.19;;;12.29;100.00
31538;BME280;18147;51.952;6.146;2022-08-21T04:42:55;101575.91;;;12.30;100.00
31538;BME280;18147;51.952;6.146;2022-08-21T04:45:42;101586.16;;;12.37;100.00
31538;BME280;18147;51.952;6.146;2022-08-21T04:48:10;101568.31;;;12.38;100.00
31538;BME280;18147;51.952;6.146;2022-08-21T04:50:46;101575.69;;;12.49;100.00
31538;BME280;18147;51.952;6.146;2022-08-21T04:53:18;101580.06;;;12.50;100.00
31538;BME280;18147;51.952;6.146;2022-08-21T04:55:46;101570.25;;;12.50;100.00
31538;BME280;18147;51.952;6.146;2022-08-21T04:58:13;101573.00;;;12.49;100.00
31538;BME280;18147;51.952;6.146;2022-08-21T05:00:40;101580.22;;;12.62;100.00
31538;BME280;18147;51.952;6.146;2022-08-21T05:03:07;101578.53;;;12.76;100.00
31538;BME280;18147;51.952;6.146;2022-08-21T05:05:35;101569.72;;;12.74;100.00
31538;BME280;18147;51.952;6.146;2022-08-21T05:08:01;101574.25;;;12.87;100.00
31538;BME280;18147;51.952;6.146;2022-08-21T05:10:27;101562.28;;;12.93;100.00
31538;BME280;18147;51.952;6.146;2022-08-21T05:12:54;101565.53;;;12.98;100.00
31538;BME280;18147;51.952;6.146;2022-08-21T05:15:20;101563.06;;;13.09;100.00
31538;BME280;18147;51.952;6.146;2022-08-21T05:17:46;101554.19;;;13.23;100.00
31538;BME280;18147;51.952;6.146;2022-08-21T05:20:12;101563.44;;;13.17;100.00
31538;BME280;18147;51.952;6.146;2022-08-21T05:22:38;101557.00;;;13.20;100.00
31538;BME280;18147;51.952;6.146;2022-08-21T05:25:05;101552.66;;;13.33;100.00
31538;BME280;18147;51.952;6.146;2022-08-21T05:27:31;101552.53;;;13.49;100.00
31538;BME280;18147;51.952;6.146;2022-08-21T05:29:57;101553.75;;;13.58;100.00
31538;BME280;18147;51.952;6.146;2022-08-21T05:32:22;101556.56;;;13.83;100.00
31538;BME280;18147;51.952;6.146;2022-08-21T05:34:48;101558.19;;;13.86;100.00
31538;BME280;18147;51.952;6.146;2022-08-21T05:37:13;101567.53;;;13.93;100.00
31538;BME280;18147;51.952;6.146;2022-08-21T05:39:39;101573.47;;;13.98;100.00
31538;BME280;18147;51.952;6.146;2022-08-21T05:42:05;101578.97;;;14.09;100.00
31538;BME280;18147;51.952;6.146;2022-08-21T05:44:30;101580.66;;;14.52;100.00
31538;BME280;18147;51.952;6.146;2022-08-21T05:47:03;101583.78;;;14.71;100.00
31538;BME280;18147;51.952;6.146;2022-08-21T05:49:28;101580.91;;;14.87;100.00
31538;BME280;18147;51.952;6.146;2022-08-21T05:51:53;101585.09;;;15.03;100.00
31538;BME280;18147;51.952;6.146;2022-08-21T05:54:19;101590.13;;;14.83;100.00
31538;BME280;18147;51.952;6.146;2022-08-21T05:56:45;101594.41;;;15.11;100.00
31538;BME280;18147;51.952;6.146;2022-08-21T05:59:10;101583.22;;;15.29;100.00
31538;BME280;18147;51.952;6.146;2022-08-21T06:01:36;101577.47;;;15.60;100.00
31538;BME280;18147;51.952;6.146;2022-08-21T06:04:01;101579.31;;;15.72;100.00
31538;BME280;18147;51.952;6.146;2022-08-21T06:06:27;101580.69;;;15.77;100.00
31538;BME280;18147;51.952;6.146;2022-08-21T06:08:52;101580.19;;;16.20;100.00
31538;BME280;18147;51.952;6.146;2022-08-21T06:11:18;101583.84;;;16.43;100.00
31538;BME280;18147;51.952;6.146;2022-08-21T06:13:44;101587.78;;;16.26;100.00
31538;BME280;18147;51.952;6.146;2022-08-21T06:16:15;101580.31;;;16.54;100.00
31538;BME280;18147;51.952;6.146;2022-08-21T06:18:41;101579.91;;;16.71;100.00
31538;BME280;18147;51.952;6.146;2022-08-21T06:21:07;101587.28;;;16.80;100.00
31538;BME280;18147;51.952;6.146;2022-08-21T06:23:34;101576.13;;;16.85;100.00
31538;BME280;18147;51.952;6.146;2022-08-21T06:26:04;101581.94;;;17.14;100.00
31538;BME280;18147;51.952;6.146;2022-08-21T06:28:30;101582.31;;;17.32;100.00
31538;BME280;18147;51.952;6.146;2022-08-21T06:30:56;101584.63;;;17.25;100.00
31538;BME280;18147;51.952;6.146;2022-08-21T06:33:22;101586.09;;;17.29;100.00
31538;BME280;18147;51.952;6.146;2022-08-21T06:35:48;101578.00;;;17.52;100.00
31538;BME280;18147;51.952;6.146;2022-08-21T06:38:14;101579.16;;;18.04;99.38
31538;BME280;18147;51.952;6.146;2022-08-21T06:40:40;101583.47;;;17.95;96.85
31538;BME280;18147;51.952;6.146;2022-08-21T06:43:08;101575.41;;;18.27;98.50
31538;BME280;18147;51.952;6.146;2022-08-21T06:45:34;101577.38;;;18.46;95.11
31538;BME280;18147;51.952;6.146;2022-08-21T06:48:00;101577.00;;;18.51;94.26
31538;BME280;18147;51.952;6.146;2022-08-21T06:50:25;101567.75;;;19.47;92.30
31538;BME280;18147;51.952;6.146;2022-08-21T06:52:58;101571.00;;;19.40;90.31
31538;BME280;18147;51.952;6.146;2022-08-21T06:55:25;101576.19;;;19.94;86.75
31538;BME280;18147;51.952;6.146;2022-08-21T06:57:50;101573.91;;;19.99;86.35
31538;BME280;18147;51.952;6.146;2022-08-21T07:00:16;101577.72;;;19.46;89.00
31538;BME280;18147;51.952;6.146;2022-08-21T07:02:42;101575.31;;;20.12;86.23
31538;BME280;18147;51.952;6.146;2022-08-21T07:05:07;101579.22;;;20.58;82.83
31538;BME280;18147;51.952;6.146;2022-08-21T07:07:33;101569.06;;;20.12;82.91
31538;BME280;18147;51.952;6.146;2022-08-21T07:09:59;101574.22;;;20.25;83.03
31538;BME280;18147;51.952;6.146;2022-08-21T07:12:25;101580.34;;;21.32;82.30
31538;BME280;18147;51.952;6.146;2022-08-21T07:14:51;101580.38;;;21.12;79.41
31538;BME280;18147;51.952;6.146;2022-08-21T07:17:17;101580.19;;;20.77;81.96
31538;BME280;18147;51.952;6.146;2022-08-21T07:19:42;101577.78;;;20.64;81.21
31538;BME280;18147;51.952;6.146;2022-08-21T07:22:08;101582.03;;;20.76;82.17
31538;BME280;18147;51.952;6.146;2022-08-21T07:24:33;101578.91;;;20.61;81.14
31538;BME280;18147;51.952;6.146;2022-08-21T07:26:59;101582.25;;;21.77;78.99
31538;BME280;18147;51.952;6.146;2022-08-21T07:29:24;101574.66;;;21.15;77.49
31538;BME280;18147;51.952;6.146;2022-08-21T07:31:50;101569.28;;;21.70;76.70
31538;BME280;18147;51.952;6.146;2022-08-21T07:34:15;101561.13;;;22.34;75.28
31538;BME280;18147;51.952;6.146;2022-08-21T07:36:41;101566.28;;;22.19;73.69
31538;BME280;18147;51.952;6.146;2022-08-21T07:39:06;101558.28;;;21.44;74.70
31538;BME280;18147;51.952;6.146;2022-08-21T07:41:33;101559.56;;;21.68;73.27
31538;BME280;18147;51.952;6.146;2022-08-21T07:43:59;101562.56;;;21.92;74.64
31538;BME280;18147;51.952;6.146;2022-08-21T07:46:25;101559.91;;;21.65;73.99
31538;BME280;18147;51.952;6.146;2022-08-21T07:48:51;101558.78;;;21.85;74.93
31538;BME280;18147;51.952;6.146;2022-08-21T07:51:19;101545.59;;;21.90;74.17
31538;BME280;18147;51.952;6.146;2022-08-21T07:53:52;101553.06;;;21.79;75.60
31538;BME280;18147;51.952;6.146;2022-08-21T07:56:19;101540.50;;;22.23;73.50
31538;BME280;18147;51.952;6.146;2022-08-21T07:58:45;101546.75;;;22.06;76.93
31538;BME280;18147;51.952;6.146;2022-08-21T08:01:11;101545.66;;;21.81;76.40
31538;BME280;18147;51.952;6.146;2022-08-21T08:03:37;101547.06;;;21.57;77.94
31538;BME280;18147;51.952;6.146;2022-08-21T08:06:04;101545.38;;;22.37;74.49
31538;BME280;18147;51.952;6.146;2022-08-21T08:08:30;101554.00;;;22.77;69.96
31538;BME280;18147;51.952;6.146;2022-08-21T08:10:57;101545.28;;;23.17;71.21
31538;BME280;18147;51.952;6.146;2022-08-21T08:13:23;101549.78;;;22.03;71.96
31538;BME280;18147;51.952;6.146;2022-08-21T08:15:50;101551.34;;;21.32;75.01
31538;BME280;18147;51.952;6.146;2022-08-21T08:18:16;101557.59;;;21.70;74.75
31538;BME280;18147;51.952;6.146;2022-08-21T08:20:42;101556.28;;;21.74;73.31
31538;BME280;18147;51.952;6.146;2022-08-21T08:23:15;101560.78;;;21.18;75.03
31538;BME280;18147;51.952;6.146;2022-08-21T08:25:40;101561.63;;;20.82;79.05
31538;BME280;18147;51.952;6.146;2022-08-21T08:28:06;101558.97;;;21.09;81.29
31538;BME280;18147;51.952;6.146;2022-08-21T08:30:32;101547.50;;;21.98;80.56
31538;BME280;18147;51.952;6.146;2022-08-21T08:32:58;101545.06;;;22.22;75.25
31538;BME280;18147;51.952;6.146;2022-08-21T08:35:25;101543.91;;;21.62;77.59
31538;BME280;18147;51.952;6.146;2022-08-21T08:37:51;101545.88;;;22.15;77.14
31538;BME280;18147;51.952;6.146;2022-08-21T08:40:28;101547.53;;;22.78;76.95
31538;BME280;18147;51.952;6.146;2022-08-21T08:42:57;101537.31;;;22.71;74.25
31538;BME280;18147;51.952;6.146;2022-08-21T08:45:23;101533.94;;;21.98;76.28
31538;BME280;18147;51.952;6.146;2022-08-21T08:48:03;101540.78;;;22.38;77.41
31538;BME280;18147;51.952;6.146;2022-08-21T08:51:12;101537.13;;;22.91;75.04
31538;BME280;18147;51.952;6.146;2022-08-21T08:54:00;101528.03;;;22.56;74.79
31538;BME280;18147;51.952;6.146;2022-08-21T08:56:30;101523.66;;;22.63;75.83
31538;BME280;18147;51.952;6.146;2022-08-21T08:59:02;101522.47;;;22.40;77.04
31538;BME280;18147;51.952;6.146;2022-08-21T09:01:32;101531.38;;;22.50;76.06
31538;BME280;18147;51.952;6.146;2022-08-21T09:03:58;101534.88;;;22.07;75.68
31538;BME280;18147;51.952;6.146;2022-08-21T09:06:50;101539.44;;;22.60;78.01
31538;BME280;18147;51.952;6.146;2022-08-21T09:19:58;101530.09;;;23.48;73.22
31538;BME280;18147;51.952;6.146;2022-08-21T09:22:56;101527.22;;;23.50;71.80
31538;BME280;18147;51.952;6.146;2022-08-21T09:25:27;101520.81;;;23.67;72.12
31538;BME280;18147;51.952;6.146;2022-08-21T09:27:56;101516.81;;;23.45;71.71
31538;BME280;18147;51.952;6.146;2022-08-21T09:30:30;101524.63;;;23.40;69.22
31538;BME280;18147;51.952;6.146;2022-08-21T09:32:56;101521.78;;;23.50;70.62
31538;BME280;18147;51.952;6.146;2022-08-21T09:35:23;101518.19;;;23.07;68.22
31538;BME280;18147;51.952;6.146;2022-08-21T09:37:54;101511.56;;;23.52;69.17
31538;BME280;18147;51.952;6.146;2022-08-21T09:40:39;101501.63;;;23.93;69.29
31538;BME280;18147;51.952;6.146;2022-08-21T09:45:37;101514.81;;;22.87;69.92
31538;BME280;18147;51.952;6.146;2022-08-21T09:48:24;101520.69;;;23.77;70.85
31538;BME280;18147;51.952;6.146;2022-08-21T09:50:50;101516.47;;;24.07;65.58
31538;BME280;18147;51.952;6.146;2022-08-21T09:53:26;101520.03;;;24.08;66.40
31538;BME280;18147;51.952;6.146;2022-08-21T09:55:54;101526.34;;;24.08;68.47
31538;BME280;18147;51.952;6.146;2022-08-21T09:58:45;101528.19;;;23.99;67.27
31538;BME280;18147;51.952;6.146;2022-08-21T10:01:22;101527.91;;;24.35;64.79
31538;BME280;18147;51.952;6.146;2022-08-21T10:04:00;101517.69;;;24.37;63.50
31538;BME280;18147;51.952;6.146;2022-08-21T10:06:28;101525.66;;;24.79;64.39
31538;BME280;18147;51.952;6.146;2022-08-21T10:09:23;101521.25;;;24.29;62.21
31538;BME280;18147;51.952;6.146;2022-08-21T10:12:12;101523.66;;;23.15;65.08
31538;BME280;18147;51.952;6.146;2022-08-21T10:17:25;101517.63;;;23.38;64.69
31538;BME280;18147;51.952;6.146;2022-08-21T10:20:10;101519.63;;;23.27;65.80
31538;BME280;18147;51.952;6.146;2022-08-21T10:25:50;101516.94;;;25.00;60.63
31538;BME280;18147;51.952;6.146;2022-08-21T10:28:26;101519.09;;;25.61;58.91
31538;BME280;18147;51.952;6.146;2022-08-21T10:31:10;101522.59;;;24.74;59.61
31538;BME280;18147;51.952;6.146;2022-08-21T10:33:52;101520.66;;;25.16;58.24
31538;BME280;18147;51.952;6.146;2022-08-21T10:36:33;101504.97;;;25.49;60.60
31538;BME280;18147;51.952;6.146;2022-08-21T10:39:07;101498.88;;;25.70;58.42
31538;BME280;18147;51.952;6.146;2022-08-21T10:47:21;101498.06;;;26.76;53.94
31538;BME280;18147;51.952;6.146;2022-08-21T10:55:21;101502.63;;;26.00;53.90
31538;BME280;18147;51.952;6.146;2022-08-21T10:57:57;101503.78;;;26.05;55.36
31538;BME280;18147;51.952;6.146;2022-08-21T11:00:30;101517.34;;;25.28;53.73
31538;BME280;18147;51.952;6.146;2022-08-21T11:03:07;101524.28;;;24.92;56.55
31538;BME280;18147;51.952;6.146;2022-08-21T11:05:40;101519.94;;;25.22;56.67
31538;BME280;18147;51.952;6.146;2022-08-21T11:08:11;101515.53;;;25.52;56.12
31538;BME280;18147;51.952;6.146;2022-08-21T11:10:46;101514.91;;;25.73;56.41
31538;BME280;18147;51.952;6.146;2022-08-21T11:13:21;101508.09;;;26.00;53.00
31538;BME280;18147;51.952;6.146;2022-08-21T11:18:43;101506.50;;;26.28;52.88
31538;BME280;18147;51.952;6.146;2022-08-21T11:21:46;101506.31;;;25.22;53.08
31538;BME280;18147;51.952;6.146;2022-08-21T11:24:21;101503.97;;;25.73;51.75
31538;BME280;18147;51.952;6.146;2022-08-21T11:29:38;101503.59;;;25.84;53.05
31538;BME280;18147;51.952;6.146;2022-08-21T11:34:54;101500.19;;;26.28;50.92
31538;BME280;18147;51.952;6.146;2022-08-21T11:43:53;101495.50;;;26.74;51.19
31538;BME280;18147;51.952;6.146;2022-08-21T11:46:20;101494.56;;;26.06;50.98
31538;BME280;18147;51.952;6.146;2022-08-21T11:51:47;101490.09;;;26.51;49.74
31538;BME280;18147;51.952;6.146;2022-08-21T11:54:34;101493.69;;;26.52;46.97
31538;BME280;18147;51.952;6.146;2022-08-21T11:57:24;101492.84;;;26.28;49.18
31538;BME280;18147;51.952;6.146;2022-08-21T12:00:20;101493.69;;;25.52;51.66
31538;BME280;18147;51.952;6.146;2022-08-21T12:02:52;101490.25;;;25.27;54.73
31538;BME280;18147;51.952;6.146;2022-08-21T12:05:42;101482.28;;;25.48;51.84
31538;BME280;18147;51.952;6.146;2022-08-21T12:10:46;101480.44;;;25.72;51.60
31538;BME280;18147;51.952;6.146;2022-08-21T12:13:30;101486.72;;;25.80;51.18
31538;BME280;18147;51.952;6.146;2022-08-21T12:16:49;101488.31;;;25.67;51.46
31538;BME280;18147;51.952;6.146;2022-08-21T12:19:29;101490.25;;;25.58;51.95
31538;BME280;18147;51.952;6.146;2022-08-21T12:24:37;101491.09;;;25.90;51.53
31538;BME280;18147;51.952;6.146;2022-08-21T12:27:46;101493.28;;;25.63;53.23
31538;BME280;18147;51.952;6.146;2022-08-21T12:33:17;101490.19;;;26.58;52.13
31538;BME280;18147;51.952;6.146;2022-08-21T12:35:44;101491.47;;;27.15;48.64
31538;BME280;18147;51.952;6.146;2022-08-21T12:38:32;101493.78;;;26.73;47.04
31538;BME280;18147;51.952;6.146;2022-08-21T12:41:17;101495.22;;;27.28;48.45
31538;BME280;18147;51.952;6.146;2022-08-21T12:43:53;101492.25;;;27.45;45.55
31538;BME280;18147;51.952;6.146;2022-08-21T12:46:27;101492.44;;;26.54;47.62
31538;BME280;18147;51.952;6.146;2022-08-21T12:48:58;101493.75;;;25.98;48.22
31538;BME280;18147;51.952;6.146;2022-08-21T12:51:33;101495.81;;;26.19;47.64
31538;BME280;18147;51.952;6.146;2022-08-21T12:54:01;101491.09;;;26.13;50.66
31538;BME280;18147;51.952;6.146;2022-08-21T12:56:30;101495.47;;;26.22;48.49
31538;BME280;18147;51.952;6.146;2022-08-21T12:59:00;101487.47;;;26.35;46.35
31538;BME280;18147;51.952;6.146;2022-08-21T13:01:35;101490.97;;;26.81;49.66
31538;BME280;18147;51.952;6.146;2022-08-21T13:04:07;101484.50;;;26.45;45.02
31538;BME280;18147;51.952;6.146;2022-08-21T13:06:40;101482.56;;;26.83;46.46
31538;BME280;18147;51.952;6.146;2022-08-21T13:09:10;101488.06;;;27.13;48.06
31538;BME280;18147;51.952;6.146;2022-08-21T13:11:37;101490.09;;;26.05;46.32
31538;BME280;18147;51.952;6.146;2022-08-21T13:14:05;101487.28;;;25.76;47.17
31538;BME280;18147;51.952;6.146;2022-08-21T13:16:34;101484.19;;;25.40;48.81
31538;BME280;18147;51.952;6.146;2022-08-21T13:19:04;101479.00;;;25.84;49.55
31538;BME280;18147;51.952;6.146;2022-08-21T13:21:34;101478.13;;;26.29;49.44
31538;BME280;18147;51.952;6.146;2022-08-21T13:24:24;101478.53;;;26.41;47.98
31538;BME280;18147;51.952;6.146;2022-08-21T13:26:51;101477.63;;;26.49;47.37
31538;BME280;18147;51.952;6.146;2022-08-21T13:29:20;101476.06;;;26.84;46.73
31538;BME280;18147;51.952;6.146;2022-08-21T13:31:54;101475.97;;;27.22;46.69
31538;BME280;18147;51.952;6.146;2022-08-21T13:34:22;101482.03;;;27.53;46.07
31538;BME280;18147;51.952;6.146;2022-08-21T13:36:51;101478.72;;;27.22;43.59
31538;BME280;18147;51.952;6.146;2022-08-21T13:39:18;101479.94;;;27.55;45.27
31538;BME280;18147;51.952;6.146;2022-08-21T13:41:48;101485.72;;;27.46;46.03
31538;BME280;18147;51.952;6.146;2022-08-21T13:44:34;101489.09;;;26.82;45.03
31538;BME280;18147;51.952;6.146;2022-08-21T13:47:02;101486.88;;;26.48;45.93
31538;BME280;18147;51.952;6.146;2022-08-21T13:49:33;101481.97;;;26.43;44.44
31538;BME280;18147;51.952;6.146;2022-08-21T13:51:59;101482.75;;;26.52;44.42
31538;BME280;18147;51.952;6.146;2022-08-21T13:54:36;101491.84;;;25.75;46.55